createdAt,value
2023-03-02T00:00:16.868Z,1.40
2023-03-02T00:03:18.447Z,1.30
2023-03-02T00:06:20.139Z,1.42
2023-03-02T00:09:21.680Z,1.38
2023-03-02T00:12:23.677Z,1.40
2023-03-02T00:15:25.258Z,1.40
2023-03-02T00:18:26.708Z,1.40
2023-03-02T00:21:28.273Z,1.45
2023-03-02T00:24:29.719Z,1.42
2023-03-02T00:27:31.258Z,1.42
2023-03-02T00:30:32.783Z,1.38
2023-03-02T00:33:34.647Z,1.30
2023-03-02T00:36:36.233Z,1.30
2023-03-02T00:39:37.748Z,1.50
2023-03-02T00:42:39.355Z,1.38
2023-03-02T00:45:41.218Z,1.30
2023-03-02T00:48:43.451Z,1.35
2023-03-02T00:51:44.916Z,1.10
2023-03-02T00:54:46.383Z,1.33
2023-03-02T00:57:54.916Z,1.40
2023-03-02T01:01:06.561Z,1.30
2023-03-02T01:04:09.675Z,1.30
2023-03-02T01:07:14.767Z,1.40
2023-03-02T01:10:17.082Z,1.20
2023-03-02T01:13:19.605Z,1.38
2023-03-02T01:16:21.240Z,1.40
2023-03-02T01:19:22.878Z,1.52
2023-03-02T01:22:24.390Z,1.40
2023-03-02T01:25:25.884Z,1.10
2023-03-02T01:28:27.707Z,1.38
2023-03-02T01:31:30.291Z,1.55
2023-03-02T01:34:32.055Z,1.48
2023-03-02T01:37:34.186Z,1.50
2023-03-02T01:40:35.716Z,1.88
2023-03-02T01:43:37.718Z,1.60
2023-03-02T01:46:39.265Z,1.80
2023-03-02T01:49:49.669Z,1.65
2023-03-02T01:52:52.729Z,2.10
2023-03-02T01:55:54.796Z,1.83
2023-03-02T01:59:05.761Z,1.77
2023-03-02T02:02:10.660Z,1.55
2023-03-02T02:05:17.513Z,1.60
2023-03-02T02:08:19.258Z,1.83
2023-03-02T02:11:20.898Z,1.70
2023-03-02T02:14:25.600Z,1.80
2023-03-02T02:17:31.185Z,1.80
2023-03-02T02:20:37.275Z,1.83
2023-03-02T02:24:11.096Z,1.60
2023-03-02T02:27:13.675Z,1.70
2023-03-02T02:30:16.806Z,1.80
2023-03-02T02:33:23.257Z,1.80
2023-03-02T02:36:34.768Z,1.58
2023-03-02T02:39:45.179Z,1.77
2023-03-02T02:45:54.999Z,1.77
2023-03-02T02:48:56.647Z,1.70
2023-03-02T02:52:00.056Z,1.60
2023-03-02T02:55:02.691Z,1.70
2023-03-02T02:58:13.632Z,1.73
2023-03-02T03:01:18.370Z,1.67
2023-03-02T03:04:28.028Z,1.60
2023-03-02T03:07:31.803Z,1.55
2023-03-02T03:10:40.234Z,1.40
2023-03-02T03:13:44.382Z,1.58
2023-03-02T03:16:48.240Z,1.52
2023-03-02T03:19:49.788Z,1.60
2023-03-02T03:22:53.432Z,1.42
2023-03-02T03:25:55.717Z,1.45
2023-03-02T03:28:57.422Z,1.38
2023-03-02T03:32:00.646Z,1.60
2023-03-02T03:35:03.798Z,1.40
2023-03-02T03:38:08.304Z,1.60
2023-03-02T03:41:09.862Z,1.65
2023-03-02T03:44:11.513Z,1.50
2023-03-02T03:47:15.774Z,1.40
2023-03-02T03:50:17.897Z,1.42
2023-03-02T03:53:19.497Z,1.30
2023-03-02T03:56:21.210Z,1.60
2023-03-02T03:59:25.412Z,1.40
2023-03-02T04:02:31.783Z,1.67
2023-03-02T04:05:34.193Z,1.60
2023-03-02T04:08:37.380Z,1.50
2023-03-02T04:11:41.080Z,1.50
2023-03-02T04:14:42.605Z,1.40
2023-03-02T04:17:44.956Z,1.55
2023-03-02T04:20:47.854Z,1.60
2023-03-02T04:23:49.468Z,1.50
2023-03-02T04:26:51.817Z,1.42
2023-03-02T04:29:54.004Z,1.45
2023-03-02T04:32:57.513Z,1.60
2023-03-02T04:36:01.077Z,1.30
2023-03-02T04:39:04.482Z,1.27
2023-03-02T04:42:06.049Z,1.50
2023-03-02T04:45:08.047Z,1.40
2023-03-02T04:48:09.564Z,1.48
2023-03-02T04:51:18.711Z,1.33
2023-03-02T04:54:25.300Z,1.20
2023-03-02T04:57:26.798Z,1.35
2023-03-02T05:00:28.859Z,1.40
2023-03-02T05:03:30.458Z,1.35
2023-03-02T05:06:32.320Z,1.40
2023-03-02T05:09:34.086Z,1.30
2023-03-02T05:12:54.338Z,1.33
2023-03-02T05:15:57.516Z,1.23
2023-03-02T05:19:00.195Z,1.38
2023-03-02T05:22:02.069Z,1.35
2023-03-02T05:25:04.570Z,1.33
2023-03-02T05:28:06.087Z,1.40
2023-03-02T05:31:08.058Z,1.40
2023-03-02T05:34:14.212Z,1.25
2023-03-02T05:37:15.733Z,1.20
2023-03-02T05:40:19.280Z,1.45
2023-03-02T05:43:21.770Z,1.20
2023-03-02T05:46:23.605Z,1.50
2023-03-02T05:49:25.099Z,1.50
2023-03-02T05:52:26.659Z,1.40
2023-03-02T05:55:28.825Z,1.40
2023-03-02T05:58:30.419Z,1.40
2023-03-02T06:01:32.176Z,1.40
2023-03-02T06:04:34.074Z,1.40
2023-03-02T06:07:35.621Z,1.40
2023-03-02T06:10:37.145Z,1.40
2023-03-02T06:13:39.854Z,1.90
2023-03-02T06:16:41.467Z,1.40
2023-03-02T06:19:43.120Z,1.50
2023-03-02T06:22:46.800Z,1.50
2023-03-02T06:25:48.859Z,1.58
2023-03-02T06:28:53.155Z,1.40
2023-03-02T06:31:55.329Z,1.40
2023-03-02T06:34:57.107Z,1.42
2023-03-02T06:37:58.811Z,1.50
2023-03-02T06:41:00.374Z,1.40
2023-03-02T06:44:02.104Z,1.50
2023-03-02T06:47:03.630Z,1.40
2023-03-02T06:50:06.205Z,1.52
2023-03-02T06:53:07.735Z,1.35
2023-03-02T06:56:10.063Z,1.60
2023-03-02T06:59:11.658Z,1.85
2023-03-02T07:02:13.288Z,1.27
2023-03-02T07:05:14.878Z,1.50
2023-03-02T07:08:16.388Z,1.50
2023-03-02T07:11:17.898Z,1.60
2023-03-02T07:14:19.381Z,1.50
2023-03-02T07:17:20.958Z,1.60
2023-03-02T07:20:22.549Z,1.50
2023-03-02T07:23:24.090Z,1.55
2023-03-02T07:26:25.567Z,1.65
2023-03-02T07:29:27.123Z,1.52
2023-03-02T07:32:28.735Z,1.50
2023-03-02T07:35:30.329Z,1.50
2023-03-02T07:38:31.906Z,1.40
2023-03-02T07:41:33.786Z,1.52
2023-03-02T07:44:35.527Z,1.70
2023-03-02T07:47:37.084Z,1.52
2023-03-02T07:50:38.651Z,1.70
2023-03-02T07:53:40.221Z,1.63
2023-03-02T07:56:41.763Z,1.52
2023-03-02T07:59:43.678Z,1.52
2023-03-02T08:02:45.233Z,1.70
2023-03-02T08:05:46.769Z,1.42
2023-03-02T08:08:48.629Z,1.60
2023-03-02T08:11:50.138Z,1.65
2023-03-02T08:14:51.830Z,1.60
2023-03-02T08:17:53.376Z,1.40
2023-03-02T08:20:55.218Z,1.67
2023-03-02T08:23:57.623Z,1.77
2023-03-02T08:27:03.118Z,1.60
2023-03-02T08:30:05.237Z,1.65
2023-03-02T08:33:07.305Z,1.50
2023-03-02T08:36:14.803Z,1.60
2023-03-02T08:39:16.267Z,1.65
2023-03-02T08:42:18.320Z,1.60
2023-03-02T08:45:20.795Z,1.77
2023-03-02T08:48:22.438Z,1.70
2023-03-02T08:51:25.440Z,1.60
2023-03-02T08:54:27.129Z,1.67
2023-03-02T08:57:28.622Z,1.67
2023-03-02T09:00:31.741Z,1.67
2023-03-02T09:03:33.258Z,1.83
2023-03-02T09:06:44.020Z,1.95
2023-03-02T09:09:45.481Z,1.77
2023-03-02T09:12:47.025Z,1.70
2023-03-02T09:15:48.458Z,1.55
2023-03-02T09:18:50.120Z,1.83
2023-03-02T09:21:51.579Z,1.75
2023-03-02T09:24:53.013Z,1.70
2023-03-02T09:27:54.458Z,1.88
2023-03-02T09:31:03.433Z,2.10
2023-03-02T09:34:05.618Z,2.20
2023-03-02T09:37:07.148Z,2.03
2023-03-02T09:40:25.188Z,2.10
2023-03-02T09:43:53.499Z,2.60
2023-03-02T09:47:34.929Z,2.45
2023-03-02T09:50:46.437Z,2.45
2023-03-02T09:54:10.994Z,2.47
2023-03-02T09:57:26.566Z,2.50
2023-03-02T10:00:36.126Z,2.83
2023-03-02T10:03:54.165Z,2.80
2023-03-02T10:07:01.388Z,4.57
2023-03-02T10:10:08.956Z,9.57
2023-03-02T10:13:40.605Z,13.77
2023-03-02T10:16:49.564Z,15.95
2023-03-02T10:19:56.614Z,16.60
2023-03-02T10:23:24.327Z,18.83
2023-03-02T10:26:35.395Z,19.88
2023-03-02T10:29:43.112Z,19.40
2023-03-02T10:32:52.407Z,21.13
2023-03-02T10:35:54.134Z,21.30
2023-03-02T10:38:57.628Z,21.77
2023-03-02T10:42:03.525Z,21.80
2023-03-02T10:45:23.876Z,21.67
2023-03-02T10:48:25.367Z,20.92
2023-03-02T10:51:32.007Z,19.30
2023-03-02T10:54:34.625Z,18.30
2023-03-02T10:57:38.702Z,17.58
2023-03-02T11:00:40.177Z,17.02
2023-03-02T11:03:41.818Z,15.75
2023-03-02T11:06:43.352Z,15.90
2023-03-02T11:10:00.521Z,14.23
2023-03-02T11:13:06.163Z,13.93
2023-03-02T11:16:16.800Z,14.17
2023-03-02T11:19:34.661Z,13.00
2023-03-02T11:22:53.350Z,13.10
2023-03-02T11:25:59.899Z,12.77
2023-03-02T11:32:34.529Z,11.48
2023-03-02T11:35:53.046Z,11.93
2023-03-02T11:38:55.207Z,10.73
2023-03-02T11:41:56.791Z,10.88
2023-03-02T11:45:03.729Z,11.32
2023-03-02T11:48:26.610Z,11.23
2023-03-02T11:55:24.528Z,10.57
2023-03-02T11:58:29.652Z,11.00
2023-03-02T12:01:33.628Z,10.20
2023-03-02T12:04:38.141Z,10.07
2023-03-02T12:07:39.673Z,9.70
2023-03-02T12:10:44.401Z,8.70
2023-03-02T12:13:57.765Z,9.00
2023-03-02T12:17:25.425Z,9.43
2023-03-02T12:20:29.854Z,9.05
2023-03-02T12:23:34.217Z,8.10
2023-03-02T12:26:37.586Z,7.97
2023-03-02T12:29:43.582Z,8.50
2023-03-02T12:32:58.166Z,8.35
2023-03-02T12:36:10.098Z,7.75
2023-03-02T12:39:42.847Z,7.68
2023-03-02T12:42:49.349Z,7.60
2023-03-02T12:49:33.393Z,6.80
2023-03-02T12:52:36.516Z,7.32
2023-03-02T12:55:38.580Z,7.30
2023-03-02T12:58:40.157Z,7.13
2023-03-02T13:01:41.644Z,7.00
2023-03-02T13:04:43.225Z,6.43
2023-03-02T13:07:56.358Z,6.80
2023-03-02T13:11:01.016Z,6.47
2023-03-02T13:14:17.448Z,6.50
2023-03-02T13:17:32.915Z,5.97
2023-03-02T13:20:34.592Z,6.38
2023-03-02T13:23:36.217Z,6.63
2023-03-02T13:26:39.778Z,6.00
2023-03-02T13:29:41.350Z,6.35
2023-03-02T13:32:45.682Z,6.18
2023-03-02T13:35:47.807Z,6.00
2023-03-02T13:38:52.639Z,6.00
2023-03-02T13:41:59.399Z,6.00
2023-03-02T13:45:31.251Z,5.68
2023-03-02T13:48:33.670Z,5.43
2023-03-02T13:51:38.190Z,4.88
2023-03-02T13:54:42.576Z,5.65
2023-03-02T13:57:45.811Z,4.90
2023-03-02T14:00:48.381Z,5.03
2023-03-02T14:03:50.002Z,4.45
2023-03-02T14:06:54.535Z,4.60
2023-03-02T14:09:57.602Z,4.55
2023-03-02T14:13:05.708Z,4.60
2023-03-02T14:16:10.788Z,4.60
2023-03-02T14:19:22.282Z,4.47
2023-03-02T14:22:26.844Z,4.50
2023-03-02T14:25:28.458Z,4.50
2023-03-02T14:28:33.006Z,4.30
2023-03-02T14:31:35.013Z,4.43
2023-03-02T14:34:37.394Z,4.13
2023-03-02T14:37:45.437Z,4.07
2023-03-02T14:40:47.203Z,4.70
2023-03-02T14:43:49.446Z,4.30
2023-03-02T14:46:51.310Z,4.30
2023-03-02T14:49:53.538Z,4.00
2023-03-02T14:52:57.729Z,4.03
2023-03-02T14:56:00.502Z,3.83
2023-03-02T14:59:02.058Z,4.18
2023-03-02T15:02:12.964Z,4.32
2023-03-02T15:05:20.676Z,3.50
2023-03-02T15:08:23.050Z,3.63
2023-03-02T15:11:26.467Z,3.83
2023-03-02T15:14:27.935Z,4.28
2023-03-02T15:17:29.432Z,3.67
2023-03-02T15:20:31.166Z,3.70
2023-03-02T15:23:32.922Z,3.60
2023-03-02T15:26:34.438Z,3.80
2023-03-02T15:29:35.948Z,3.35
2023-03-02T15:32:38.107Z,3.78
2023-03-02T15:35:40.805Z,3.22
2023-03-02T15:38:42.328Z,3.47
2023-03-02T15:41:43.870Z,3.58
2023-03-02T15:44:45.389Z,3.72
2023-03-02T15:47:47.105Z,3.30
2023-03-02T15:51:06.531Z,3.30
2023-03-02T15:54:10.717Z,3.20
2023-03-02T15:57:12.562Z,3.40
2023-03-02T16:00:14.447Z,3.13
2023-03-02T16:03:16.388Z,3.25
2023-03-02T16:06:18.080Z,3.47
2023-03-02T16:09:19.562Z,3.05
2023-03-02T16:12:23.305Z,3.15
2023-03-02T16:15:24.840Z,3.17
2023-03-02T16:18:26.308Z,3.28
2023-03-02T16:21:31.222Z,3.10
2023-03-02T16:24:32.687Z,2.78
2023-03-02T16:27:34.206Z,3.10
2023-03-02T16:30:36.513Z,3.10
2023-03-02T16:33:39.460Z,2.95
2023-03-02T16:36:42.112Z,2.83
2023-03-02T16:39:43.615Z,3.10
2023-03-02T16:42:45.155Z,3.20
2023-03-02T16:45:47.518Z,2.90
2023-03-02T16:48:49.687Z,2.85
2023-03-02T16:51:56.792Z,2.70
2023-03-02T16:54:59.251Z,2.70
2023-03-02T16:58:00.721Z,2.80
2023-03-02T17:01:02.283Z,2.70
2023-03-02T17:04:05.950Z,2.80
2023-03-02T17:07:08.256Z,2.63
2023-03-02T17:10:14.757Z,2.60
2023-03-02T17:16:19.183Z,3.03
2023-03-02T17:19:20.720Z,2.50
2023-03-02T17:22:22.228Z,2.35
2023-03-02T17:25:23.870Z,2.35
2023-03-02T17:28:25.394Z,2.58
2023-03-02T17:31:27.080Z,2.53
2023-03-02T17:34:31.173Z,2.58
2023-03-02T17:37:33.061Z,2.55
2023-03-02T17:40:34.628Z,2.55
2023-03-02T17:43:38.220Z,2.58
2023-03-02T17:46:43.024Z,2.50
2023-03-02T17:49:45.173Z,5.93
2023-03-02T17:52:47.029Z,4.65
2023-03-02T17:55:48.526Z,3.65
2023-03-02T17:58:55.725Z,3.60
2023-03-02T18:01:57.272Z,3.20
2023-03-02T18:04:59.222Z,3.03
2023-03-02T18:08:00.752Z,3.05
2023-03-02T18:11:04.254Z,2.80
2023-03-02T18:14:05.798Z,3.65
2023-03-02T18:17:09.221Z,2.53
2023-03-02T18:20:11.971Z,2.70
2023-03-02T18:23:13.746Z,2.60
2023-03-02T18:26:16.100Z,2.22
2023-03-02T18:29:17.637Z,2.35
2023-03-02T18:32:19.182Z,2.55
2023-03-02T18:35:21.279Z,2.50
2023-03-02T18:38:30.599Z,2.30
2023-03-02T18:41:32.556Z,2.20
2023-03-02T18:44:34.714Z,2.20
2023-03-02T18:47:36.590Z,2.30
2023-03-02T18:50:39.541Z,2.20
2023-03-02T18:53:42.928Z,2.47
2023-03-02T18:56:44.589Z,2.30
2023-03-02T18:59:46.099Z,2.30
2023-03-02T19:02:47.966Z,2.20
2023-03-02T19:05:49.520Z,2.30
2023-03-02T19:08:51.063Z,2.17
2023-03-02T19:11:52.536Z,2.00
2023-03-02T19:14:55.587Z,1.98
2023-03-02T19:17:57.222Z,2.00
2023-03-02T19:20:59.112Z,2.17
2023-03-02T19:24:01.752Z,1.80
2023-03-02T19:27:03.538Z,2.00
2023-03-02T19:30:07.192Z,2.22
2023-03-02T19:33:09.788Z,2.00
2023-03-02T19:36:12.584Z,1.80
2023-03-02T19:39:14.426Z,2.15
2023-03-02T19:42:16.113Z,1.98
2023-03-02T19:45:31.211Z,2.05
2023-03-02T19:48:33.949Z,2.00
2023-03-02T19:51:35.587Z,1.88
2023-03-02T19:54:37.072Z,2.20
2023-03-02T19:57:39.950Z,1.90
2023-03-02T20:00:41.421Z,2.20
2023-03-02T20:03:44.092Z,1.95
2023-03-02T20:06:45.776Z,2.15
2023-03-02T20:09:47.330Z,2.60
2023-03-02T20:12:48.920Z,12.00
2023-03-02T20:15:51.138Z,19.58
2023-03-02T20:18:52.988Z,27.88
2023-03-02T20:21:54.582Z,26.45
2023-03-02T20:24:56.318Z,44.65
2023-03-02T20:27:58.465Z,61.60
2023-03-02T20:31:03.163Z,59.97
2023-03-02T20:34:08.970Z,64.07
2023-03-02T20:37:13.467Z,62.70
2023-03-02T20:40:17.395Z,58.00
2023-03-02T20:43:19.377Z,54.95
2023-03-02T20:46:33.848Z,52.78
2023-03-02T20:49:37.362Z,48.22
2023-03-02T20:52:38.885Z,47.45
2023-03-02T20:55:40.695Z,45.30
2023-03-02T20:58:43.334Z,41.72
2023-03-02T21:01:44.886Z,41.55
2023-03-02T21:04:47.097Z,40.45
2023-03-02T21:07:49.397Z,38.45
2023-03-02T21:10:51.155Z,36.08
2023-03-02T21:13:52.869Z,34.40
2023-03-02T21:16:54.509Z,32.72
2023-03-02T21:19:56.426Z,30.60
2023-03-02T21:22:59.443Z,31.10
2023-03-02T21:26:01.048Z,28.52
2023-03-02T21:29:03.748Z,28.40
2023-03-02T21:32:07.633Z,28.20
2023-03-02T21:35:09.992Z,26.38
2023-03-02T21:38:11.654Z,26.08
2023-03-02T21:41:13.215Z,25.20
2023-03-02T21:44:14.993Z,22.70
2023-03-02T21:47:16.478Z,23.95
2023-03-02T21:50:26.362Z,22.50
2023-03-02T21:53:27.903Z,22.42
2023-03-02T21:56:29.387Z,21.52
2023-03-02T21:59:30.884Z,21.35
2023-03-02T22:02:33.154Z,21.20
2023-03-02T22:05:35.356Z,20.30
2023-03-02T22:08:39.108Z,19.60
2023-03-02T22:11:40.736Z,19.02
2023-03-02T22:14:42.348Z,19.00
2023-03-02T22:17:43.914Z,18.65
2023-03-02T22:20:48.162Z,17.73
2023-03-02T22:23:49.965Z,17.52
2023-03-02T22:27:16.109Z,17.35
2023-03-02T22:30:23.617Z,16.98
2023-03-02T22:33:28.152Z,16.67
2023-03-02T22:36:29.617Z,16.52
2023-03-02T22:39:33.175Z,15.63
2023-03-02T22:42:34.649Z,15.65
2023-03-02T22:45:38.196Z,15.27
2023-03-02T22:48:41.131Z,15.68
2023-03-02T22:51:42.702Z,15.73
2023-03-02T22:54:45.545Z,14.80
2023-03-02T22:57:47.103Z,14.55
2023-03-02T23:00:48.897Z,14.32
2023-03-02T23:03:58.282Z,14.35
2023-03-02T23:07:02.593Z,13.63
2023-03-02T23:10:04.461Z,13.35
2023-03-02T23:13:05.977Z,13.05
2023-03-02T23:16:14.537Z,13.15
2023-03-02T23:19:16.071Z,12.40
2023-03-02T23:22:18.290Z,12.32
2023-03-02T23:25:19.878Z,12.60
2023-03-02T23:28:21.362Z,11.95
2023-03-02T23:31:22.905Z,12.50
2023-03-02T23:34:24.567Z,11.77
2023-03-02T23:37:26.088Z,12.52
2023-03-02T23:40:28.918Z,11.65
2023-03-02T23:43:30.421Z,11.55
2023-03-02T23:46:32.306Z,11.25
2023-03-02T23:49:33.805Z,10.73
2023-03-02T23:52:35.270Z,10.30
2023-03-02T23:55:39.460Z,10.43
2023-03-02T23:58:41.006Z,10.05
